createdAt,value
2018-09-18T00:00:18.313Z,4.00
2018-09-18T00:01:18.286Z,4.00
2018-09-18T00:02:18.282Z,4.00
2018-09-18T00:03:18.255Z,4.00
2018-09-18T00:04:18.236Z,4.00
2018-09-18T00:05:18.224Z,4.00
2018-09-18T00:06:18.205Z,4.00
2018-09-18T00:07:18.195Z,4.00
2018-09-18T00:08:18.173Z,4.00
2018-09-18T00:09:18.157Z,4.00
2018-09-18T00:10:18.145Z,4.00
2018-09-18T00:11:18.126Z,4.00
2018-09-18T00:12:18.107Z,4.00
2018-09-18T00:13:18.151Z,4.00
2018-09-18T00:14:18.074Z,4.00
2018-09-18T00:15:18.062Z,4.00
2018-09-18T00:16:18.105Z,4.00
2018-09-18T00:17:18.033Z,4.00
2018-09-18T00:18:18.013Z,4.00
2018-09-18T00:19:17.996Z,4.00
2018-09-18T00:20:17.984Z,4.00
2018-09-18T00:21:17.969Z,4.00
2018-09-18T00:22:17.945Z,4.00
2018-09-18T00:23:17.938Z,4.00
2018-09-18T00:24:17.911Z,4.00
2018-09-18T00:25:17.896Z,4.00
2018-09-18T00:26:17.881Z,4.00
2018-09-18T00:27:17.870Z,4.00
2018-09-18T00:28:17.853Z,4.00
2018-09-18T00:29:17.838Z,4.00
2018-09-18T00:30:17.830Z,4.00
2018-09-18T00:31:17.800Z,4.00
2018-09-18T00:32:17.898Z,4.00
2018-09-18T00:33:17.765Z,4.00
2018-09-18T00:34:17.758Z,4.00
2018-09-18T00:35:17.740Z,4.00
2018-09-18T00:36:17.721Z,4.00
2018-09-18T00:37:17.700Z,4.00
2018-09-18T00:38:17.688Z,4.00
2018-09-18T00:39:17.669Z,4.00
2018-09-18T00:40:17.652Z,4.00
2018-09-18T00:41:17.637Z,4.00
2018-09-18T00:42:17.620Z,4.00
2018-09-18T00:43:17.602Z,4.00
2018-09-18T00:44:17.588Z,4.00
2018-09-18T00:45:17.572Z,4.00
2018-09-18T00:46:17.554Z,4.00
2018-09-18T00:47:17.538Z,4.00
2018-09-18T00:48:17.525Z,4.00
2018-09-18T00:49:17.507Z,4.00
2018-09-18T00:50:17.488Z,4.00
2018-09-18T00:51:17.475Z,4.00
2018-09-18T00:52:17.453Z,4.00
2018-09-18T00:53:17.438Z,4.00
2018-09-18T00:54:17.423Z,4.00
2018-09-18T00:55:17.421Z,4.00
2018-09-18T00:56:17.531Z,4.00
2018-09-18T00:57:17.381Z,4.00
2018-09-18T00:58:17.358Z,4.00
2018-09-18T00:59:17.447Z,4.00
2018-09-18T01:00:17.327Z,4.00
2018-09-18T01:01:17.308Z,4.00
2018-09-18T01:02:17.342Z,4.00
2018-09-18T01:03:17.280Z,4.00
2018-09-18T01:04:17.264Z,4.00
2018-09-18T01:05:17.241Z,4.00
2018-09-18T01:06:17.227Z,4.00
2018-09-18T01:07:17.211Z,4.00
2018-09-18T01:08:17.193Z,4.00
2018-09-18T01:09:17.177Z,4.00
2018-09-18T01:10:17.160Z,4.00
2018-09-18T01:11:17.149Z,4.00
2018-09-18T01:12:17.128Z,4.00
2018-09-18T01:13:17.115Z,4.00
2018-09-18T01:14:17.099Z,4.00
2018-09-18T01:15:17.199Z,4.00
2018-09-18T01:16:17.065Z,4.00
2018-09-18T01:17:17.047Z,4.00
2018-09-18T01:18:17.030Z,4.00
2018-09-18T01:19:17.017Z,4.00
2018-09-18T01:20:16.997Z,4.00
2018-09-18T01:21:16.981Z,4.00
2018-09-18T01:22:16.965Z,4.00
2018-09-18T01:23:16.946Z,4.00
2018-09-18T01:24:16.940Z,4.00
2018-09-18T01:25:16.914Z,4.00
2018-09-18T01:26:16.896Z,4.00
2018-09-18T01:27:16.886Z,4.00
2018-09-18T01:28:16.881Z,4.00
2018-09-18T01:29:16.848Z,4.00
2018-09-18T01:30:16.832Z,4.00
2018-09-18T01:31:16.818Z,4.00
2018-09-18T01:32:16.799Z,4.00
2018-09-18T01:33:16.785Z,4.00
2018-09-18T01:34:16.927Z,4.00
2018-09-18T01:35:16.748Z,4.00
2018-09-18T01:36:16.735Z,4.00
2018-09-18T01:37:16.719Z,4.00
2018-09-18T01:38:16.699Z,4.00
2018-09-18T01:39:16.687Z,4.00
2018-09-18T01:40:16.666Z,4.00
2018-09-18T01:41:16.650Z,4.00
2018-09-18T01:42:16.636Z,4.00
2018-09-18T01:43:16.623Z,4.00
2018-09-18T01:44:16.620Z,4.00
2018-09-18T01:45:16.601Z,4.00
2018-09-18T01:46:16.573Z,4.00
2018-09-18T01:47:16.555Z,4.00
2018-09-18T01:48:16.536Z,4.00
2018-09-18T01:49:16.527Z,4.00
2018-09-18T01:50:16.504Z,4.00
2018-09-18T01:51:16.487Z,4.00
2018-09-18T01:52:16.468Z,4.00
2018-09-18T01:53:16.452Z,4.00
2018-09-18T01:54:16.437Z,4.00
2018-09-18T01:55:16.423Z,4.00
2018-09-18T01:56:16.402Z,4.00
2018-09-18T01:57:16.385Z,4.00
2018-09-18T01:58:16.372Z,4.00
2018-09-18T01:59:16.364Z,4.00
2018-09-18T02:00:16.340Z,4.00
2018-09-18T02:01:16.446Z,4.00
2018-09-18T02:02:16.312Z,4.00
2018-09-18T02:03:16.287Z,4.00
2018-09-18T02:04:16.382Z,4.00
2018-09-18T02:05:49.469Z,4.00
2018-09-18T02:06:16.242Z,4.00
2018-09-18T02:07:16.224Z,4.00
2018-09-18T02:08:16.208Z,4.00
2018-09-18T02:09:16.193Z,4.00
2018-09-18T02:10:16.173Z,4.00
2018-09-18T02:11:16.159Z,4.00
2018-09-18T02:12:16.159Z,4.00
2018-09-18T02:13:16.125Z,4.00
2018-09-18T02:14:16.113Z,4.00
2018-09-18T02:15:16.094Z,4.00
2018-09-18T02:16:16.075Z,4.00
2018-09-18T02:17:16.058Z,4.00
2018-09-18T02:18:16.047Z,4.00
2018-09-18T02:19:16.024Z,4.00
2018-09-18T02:20:16.015Z,4.00
2018-09-18T02:21:15.992Z,4.00
2018-09-18T02:22:15.976Z,4.00
2018-09-18T02:23:15.962Z,4.00
2018-09-18T02:24:15.944Z,4.00
2018-09-18T02:25:15.929Z,4.00
2018-09-18T02:26:15.912Z,4.00
2018-09-18T02:27:15.896Z,4.00
2018-09-18T02:28:15.898Z,4.00
2018-09-18T02:29:15.861Z,4.00
2018-09-18T02:30:15.844Z,4.00
2018-09-18T02:31:15.931Z,4.00
2018-09-18T02:32:15.822Z,4.00
2018-09-18T02:33:15.794Z,4.00
2018-09-18T02:34:15.775Z,4.00
2018-09-18T02:35:15.762Z,4.00
2018-09-18T02:36:15.755Z,4.00
2018-09-18T02:37:15.726Z,4.00
2018-09-18T02:38:15.711Z,4.00
2018-09-18T02:39:15.694Z,4.00
2018-09-18T02:40:15.687Z,4.00
2018-09-18T02:41:15.662Z,4.00
2018-09-18T02:42:15.643Z,4.00
2018-09-18T02:43:15.629Z,4.00
2018-09-18T02:44:15.612Z,4.00
2018-09-18T02:45:15.593Z,4.00
2018-09-18T02:46:15.580Z,4.00
2018-09-18T02:47:15.558Z,4.00
2018-09-18T02:48:15.545Z,4.00
2018-09-18T02:49:15.526Z,4.00
2018-09-18T02:50:15.567Z,4.00
2018-09-18T02:51:15.495Z,4.00
2018-09-18T02:52:15.480Z,4.00
2018-09-18T02:53:15.461Z,4.00
2018-09-18T02:54:15.443Z,4.00
2018-09-18T02:55:15.431Z,4.00
2018-09-18T02:56:15.410Z,4.00
2018-09-18T02:57:15.394Z,4.00
2018-09-18T02:58:15.383Z,4.00
2018-09-18T02:59:15.361Z,4.00
2018-09-18T03:00:15.343Z,4.00
2018-09-18T03:01:15.325Z,4.00
2018-09-18T03:02:15.312Z,4.00
2018-09-18T03:03:15.298Z,4.00
2018-09-18T03:04:15.287Z,4.00
2018-09-18T03:05:15.260Z,4.00
2018-09-18T03:06:15.370Z,4.00
2018-09-18T03:07:15.236Z,4.00
2018-09-18T03:08:15.211Z,4.00
2018-09-18T03:09:15.196Z,4.00
2018-09-18T03:10:15.184Z,4.00
2018-09-18T03:11:15.180Z,4.00
2018-09-18T03:12:15.147Z,4.00
2018-09-18T03:13:15.128Z,4.00
2018-09-18T03:14:15.110Z,4.00
2018-09-18T03:15:15.102Z,4.00
2018-09-18T03:16:15.082Z,4.00
2018-09-18T03:17:15.166Z,4.00
2018-09-18T03:18:15.048Z,4.00
2018-09-18T03:19:15.030Z,4.00
2018-09-18T03:20:15.024Z,4.00
2018-09-18T03:21:15.000Z,4.00
2018-09-18T03:22:14.982Z,4.00
2018-09-18T03:23:14.961Z,4.00
2018-09-18T03:24:14.951Z,4.00
2018-09-18T03:25:14.930Z,4.00
2018-09-18T03:26:14.912Z,4.00
2018-09-18T03:27:14.947Z,4.00
2018-09-18T03:28:14.878Z,4.00
2018-09-18T03:29:14.862Z,4.00
2018-09-18T03:30:14.860Z,4.00
2018-09-18T03:31:14.832Z,4.00
2018-09-18T03:32:14.816Z,4.00
2018-09-18T03:33:14.800Z,4.00
2018-09-18T03:34:14.788Z,4.00
2018-09-18T03:35:14.762Z,4.00
2018-09-18T03:36:14.898Z,4.00
2018-09-18T03:37:14.731Z,4.00
2018-09-18T03:38:14.717Z,4.00
2018-09-18T03:39:14.695Z,4.00
2018-09-18T03:40:14.679Z,4.00
2018-09-18T03:41:14.666Z,4.00
2018-09-18T03:42:14.646Z,4.00
2018-09-18T03:43:14.628Z,4.00
2018-09-18T03:44:14.616Z,4.00
2018-09-18T03:45:14.599Z,4.00
2018-09-18T03:46:14.589Z,4.00
2018-09-18T03:47:14.571Z,4.00
2018-09-18T03:48:14.546Z,4.00
2018-09-18T03:49:14.533Z,4.00
2018-09-18T03:50:14.512Z,4.00
2018-09-18T03:51:14.498Z,4.00
2018-09-18T03:52:14.478Z,4.00
2018-09-18T03:53:14.462Z,4.00
2018-09-18T03:54:14.446Z,4.00
2018-09-18T03:55:14.442Z,4.00
2018-09-18T03:56:14.421Z,4.00
2018-09-18T03:57:14.400Z,4.00
2018-09-18T03:58:14.387Z,4.00
2018-09-18T03:59:14.365Z,4.00
2018-09-18T04:00:14.347Z,4.00
2018-09-18T04:01:14.329Z,4.00
2018-09-18T04:02:14.314Z,4.00
2018-09-18T04:03:14.315Z,4.00
2018-09-18T04:04:14.278Z,4.00
2018-09-18T04:05:14.289Z,4.00
2018-09-18T04:06:14.257Z,4.00
2018-09-18T04:07:14.233Z,4.00
2018-09-18T04:08:14.216Z,4.00
2018-09-18T04:09:14.197Z,4.00
2018-09-18T04:10:14.191Z,4.00
2018-09-18T04:11:14.174Z,8.00
2018-09-18T04:12:14.150Z,4.00
2018-09-18T04:13:14.130Z,4.00
2018-09-18T04:14:14.123Z,4.00
2018-09-18T04:15:14.095Z,4.00
2018-09-18T04:16:14.075Z,4.00
2018-09-18T04:17:14.080Z,4.00
2018-09-18T04:18:14.047Z,4.00
2018-09-18T04:19:14.029Z,4.00
2018-09-18T04:20:14.011Z,4.00
2018-09-18T04:21:13.995Z,4.00
2018-09-18T04:22:13.995Z,4.00
2018-09-18T04:23:13.963Z,4.00
2018-09-18T04:24:13.948Z,4.00
2018-09-18T04:25:13.931Z,4.00
2018-09-18T04:26:13.922Z,4.00
2018-09-18T04:27:13.896Z,4.00
2018-09-18T04:28:13.880Z,4.00
2018-09-18T04:29:13.861Z,4.00
2018-09-18T04:30:13.852Z,4.00
2018-09-18T04:31:13.835Z,4.00
2018-09-18T04:32:13.811Z,8.00
2018-09-18T04:33:13.796Z,8.00
2018-09-18T04:34:13.781Z,4.00
2018-09-18T04:35:13.760Z,4.00
2018-09-18T04:36:13.754Z,4.00
2018-09-18T04:37:13.731Z,4.00
2018-09-18T04:38:13.711Z,4.00
2018-09-18T04:39:13.705Z,8.00
2018-09-18T04:40:13.681Z,8.00
2018-09-18T04:41:13.662Z,8.00
2018-09-18T04:42:13.649Z,8.00
2018-09-18T04:43:13.638Z,8.00
2018-09-18T04:44:13.610Z,12.00
2018-09-18T04:45:13.593Z,12.00
2018-09-18T04:46:13.585Z,16.00
2018-09-18T04:47:13.569Z,16.00
2018-09-18T04:48:13.551Z,16.00
2018-09-18T04:49:13.527Z,20.00
2018-09-18T04:50:13.511Z,24.00
2018-09-18T04:51:13.496Z,28.00
2018-09-18T04:52:13.480Z,28.00
2018-09-18T04:53:13.470Z,32.00
2018-09-18T04:54:13.451Z,36.00
2018-09-18T04:55:13.428Z,40.00
2018-09-18T04:56:13.412Z,48.00
2018-09-18T04:57:13.395Z,56.00
2018-09-18T04:58:13.376Z,64.00
2018-09-18T04:59:13.359Z,72.00
2018-09-18T05:00:13.343Z,84.00
2018-09-18T05:01:13.328Z,96.00
2018-09-18T05:02:13.350Z,104.00
2018-09-18T05:03:13.289Z,120.00
2018-09-18T05:04:13.272Z,132.00
2018-09-18T05:05:13.262Z,148.00
2018-09-18T05:06:13.248Z,164.00
2018-09-18T05:07:13.226Z,180.00
2018-09-18T05:08:13.212Z,196.00
2018-09-18T05:09:13.281Z,216.00
2018-09-18T05:10:13.172Z,236.00
2018-09-18T05:11:13.165Z,260.00
2018-09-18T05:12:13.139Z,280.00
2018-09-18T05:13:13.125Z,304.00
2018-09-18T05:14:13.102Z,328.00
2018-09-18T05:15:13.088Z,352.00
2018-09-18T05:16:13.071Z,376.00
2018-09-18T05:17:13.052Z,404.00
2018-09-18T05:18:13.036Z,432.00
2018-09-18T05:19:13.019Z,460.00
2018-09-18T05:20:13.003Z,484.00
2018-09-18T05:21:12.985Z,508.00
2018-09-18T05:22:12.967Z,540.00
2018-09-18T05:23:12.951Z,576.00
2018-09-18T05:24:12.969Z,608.00
2018-09-18T05:25:12.917Z,644.00
2018-09-18T05:26:12.899Z,676.00
2018-09-18T05:27:12.990Z,704.00
2018-09-18T05:28:12.874Z,736.00
2018-09-18T05:29:12.852Z,780.00
2018-09-18T05:30:12.845Z,828.00
2018-09-18T05:31:12.818Z,880.00
2018-09-18T05:32:12.799Z,932.00
2018-09-18T05:33:12.782Z,980.00
2018-09-18T05:34:12.764Z,1028.00
2018-09-18T05:35:12.764Z,1076.00
2018-09-18T05:36:12.730Z,1124.00
2018-09-18T05:37:12.716Z,1168.00
2018-09-18T05:38:12.705Z,1204.00
2018-09-18T05:39:12.682Z,1240.00
2018-09-18T05:40:12.664Z,1284.00
2018-09-18T05:41:12.645Z,1328.00
2018-09-18T05:42:12.629Z,1368.00
2018-09-18T05:43:12.613Z,1408.00
2018-09-18T05:44:12.603Z,1444.00
2018-09-18T05:45:12.580Z,1488.00
2018-09-18T05:46:12.560Z,1532.00
2018-09-18T05:47:12.546Z,1584.00
2018-09-18T05:48:12.566Z,1628.00
2018-09-18T05:49:12.519Z,1676.00
2018-09-18T05:50:12.494Z,1728.00
2018-09-18T05:51:12.486Z,1768.00
2018-09-18T05:52:12.465Z,1808.00
2018-09-18T05:53:12.443Z,1844.00
2018-09-18T05:54:12.435Z,1880.00
2018-09-18T05:55:12.423Z,1912.00
2018-09-18T05:56:12.393Z,1944.00
2018-09-18T05:57:12.388Z,1964.00
2018-09-18T05:58:12.359Z,2004.00
2018-09-18T05:59:12.348Z,2032.00
2018-09-18T06:00:12.325Z,2060.00
2018-09-18T06:01:12.307Z,2092.00
2018-09-18T06:02:12.359Z,2116.00
2018-09-18T06:03:12.274Z,2140.00
2018-09-18T06:04:12.261Z,2172.00
2018-09-18T06:05:12.244Z,2200.00
2018-09-18T06:06:12.226Z,2236.00
2018-09-18T06:07:12.207Z,2260.00
2018-09-18T06:08:12.193Z,2284.00
2018-09-18T06:09:12.175Z,2308.00
2018-09-18T06:10:12.164Z,2328.00
2018-09-18T06:11:12.138Z,2356.00
2018-09-18T06:12:12.127Z,2376.00
2018-09-18T06:13:12.107Z,2400.00
2018-09-18T06:14:12.090Z,2420.00
2018-09-18T06:15:12.074Z,2436.00
2018-09-18T06:16:12.059Z,2456.00
2018-09-18T06:17:12.045Z,2476.00
2018-09-18T06:18:12.028Z,2488.00
2018-09-18T06:19:12.123Z,2508.00
2018-09-18T06:20:11.992Z,2524.00
2018-09-18T06:21:11.977Z,2544.00
2018-09-18T06:22:11.962Z,2560.00
2018-09-18T06:23:11.941Z,2576.00
2018-09-18T06:24:11.922Z,2592.00
2018-09-18T06:25:11.912Z,2600.00
2018-09-18T06:26:11.908Z,2612.00
2018-09-18T06:27:11.872Z,2620.00
2018-09-18T06:28:11.862Z,2632.00
2018-09-18T06:29:11.840Z,2648.00
2018-09-18T06:30:11.828Z,2668.00
2018-09-18T06:31:11.813Z,2688.00
2018-09-18T06:32:11.791Z,2700.00
2018-09-18T06:33:11.775Z,2712.00
2018-09-18T06:34:11.756Z,2716.00
2018-09-18T06:35:11.742Z,2732.00
2018-09-18T06:36:11.726Z,2740.00
2018-09-18T06:37:11.707Z,2748.00
2018-09-18T06:38:11.694Z,2760.00
2018-09-18T06:39:11.684Z,2776.00
2018-09-18T06:40:11.810Z,2788.00
2018-09-18T06:41:11.642Z,2804.00
2018-09-18T06:42:11.628Z,2816.00
2018-09-18T06:43:11.616Z,2836.00
2018-09-18T06:44:11.609Z,2864.00
2018-09-18T06:45:11.579Z,2872.00
2018-09-18T06:46:11.566Z,2896.00
2018-09-18T06:47:11.544Z,2912.00
2018-09-18T06:48:11.527Z,2924.00
2018-09-18T06:49:11.514Z,2940.00
2018-09-18T06:50:11.495Z,2948.00
2018-09-18T06:51:11.480Z,2948.00
2018-09-18T06:52:11.461Z,2956.00
2018-09-18T06:53:11.445Z,2964.00
2018-09-18T06:54:11.429Z,2968.00
2018-09-18T06:55:11.412Z,2976.00
2018-09-18T06:56:11.468Z,2980.00
2018-09-18T06:57:11.393Z,2984.00
2018-09-18T06:58:11.362Z,2984.00
2018-09-18T06:59:11.440Z,2992.00
2018-09-18T07:00:11.330Z,3000.00
2018-09-18T07:01:11.315Z,3012.00
2018-09-18T07:02:11.302Z,3028.00
2018-09-18T07:03:11.284Z,3036.00
2018-09-18T07:04:11.265Z,3044.00
2018-09-18T07:05:11.257Z,3052.00
2018-09-18T07:06:11.235Z,3056.00
2018-09-18T07:07:11.225Z,3072.00
2018-09-18T07:08:11.208Z,3104.00
2018-09-18T07:09:11.188Z,3148.00
2018-09-18T07:10:11.167Z,3172.00
2018-09-18T07:11:11.153Z,3176.00
2018-09-18T07:12:11.134Z,3188.00
2018-09-18T07:13:11.124Z,3208.00
2018-09-18T07:14:11.104Z,3216.00
2018-09-18T07:15:11.254Z,3224.00
2018-09-18T07:16:11.080Z,3240.00
2018-09-18T07:17:11.059Z,3248.00
2018-09-18T07:18:11.162Z,3248.00
2018-09-18T07:19:11.023Z,3268.00
2018-09-18T07:20:11.008Z,3280.00
2018-09-18T07:21:10.989Z,3288.00
2018-09-18T07:22:10.984Z,3284.00
2018-09-18T07:23:10.966Z,3296.00
2018-09-18T07:24:10.948Z,3312.00
2018-09-18T07:25:10.929Z,3328.00
2018-09-18T07:26:10.909Z,3356.00
2018-09-18T07:27:10.892Z,3360.00
2018-09-18T07:28:10.878Z,3384.00
2018-09-18T07:29:10.862Z,3408.00
2018-09-18T07:30:10.846Z,3416.00
2018-09-18T07:31:10.831Z,3420.00
2018-09-18T07:32:10.820Z,3448.00
2018-09-18T07:33:10.804Z,3460.00
2018-09-18T07:34:10.783Z,3484.00
2018-09-18T07:35:10.766Z,3488.00
2018-09-18T07:36:10.819Z,3500.00
2018-09-18T07:37:10.740Z,3512.00
2018-09-18T07:38:10.718Z,3528.00
2018-09-18T07:39:10.705Z,3548.00
2018-09-18T07:40:10.686Z,3568.00
2018-09-18T07:41:10.779Z,3564.00
2018-09-18T07:42:10.654Z,3596.00
2018-09-18T07:43:10.645Z,3628.00
2018-09-18T07:44:10.630Z,3700.00
2018-09-18T07:45:10.709Z,3920.00
2018-09-18T07:46:10.595Z,4044.00
2018-09-18T07:47:10.584Z,3896.00
2018-09-18T07:48:10.560Z,3876.00
2018-09-18T07:49:10.544Z,3884.00
2018-09-18T07:50:10.539Z,3916.00
2018-09-18T07:51:10.520Z,3964.00
2018-09-18T07:52:10.514Z,3932.00
2018-09-18T07:53:10.497Z,3980.00
2018-09-18T07:54:10.472Z,4028.00
2018-09-18T07:55:10.454Z,4680.00
2018-09-18T07:56:10.438Z,4168.00
2018-09-18T07:57:10.423Z,4212.00
2018-09-18T07:58:10.414Z,4932.00
2018-09-18T07:59:10.392Z,4356.00
2018-09-18T08:00:10.378Z,0.00
2018-09-18T08:01:10.518Z,5360.00
2018-09-18T08:02:10.349Z,8012.00
2018-09-18T08:03:10.388Z,4380.00
2018-09-18T08:04:10.315Z,19072.00
2018-09-18T08:05:10.310Z,4460.00
2018-09-18T08:06:10.287Z,4508.00
2018-09-18T08:07:10.282Z,4564.00
2018-09-18T08:08:10.254Z,4568.00
2018-09-18T08:09:10.250Z,4660.00
2018-09-18T08:10:10.225Z,4648.00
2018-09-18T08:11:10.214Z,5792.00
2018-09-18T08:12:10.197Z,4688.00
2018-09-18T08:13:10.184Z,4656.00
2018-09-18T08:14:10.173Z,4764.00
2018-09-18T08:15:10.152Z,4740.00
2018-09-18T08:16:10.146Z,4748.00
2018-09-18T08:17:10.123Z,4708.00
2018-09-18T08:18:10.118Z,4868.00
2018-09-18T08:19:10.126Z,4752.00
2018-09-18T08:20:10.084Z,4896.00
2018-09-18T08:21:10.068Z,4920.00
2018-09-18T08:22:10.124Z,4568.00
2018-09-18T08:23:10.047Z,9964.00
2018-09-18T08:24:10.021Z,13412.00
2018-09-18T08:25:10.037Z,28704.00
2018-09-18T08:26:09.995Z,8240.00
2018-09-18T08:27:10.008Z,12800.00
2018-09-18T08:28:09.964Z,5572.00
2018-09-18T08:29:09.951Z,6164.00
2018-09-18T08:30:09.938Z,5908.00
2018-09-18T08:31:09.922Z,5944.00
2018-09-18T08:32:09.909Z,17920.00
2018-09-18T08:33:09.903Z,8524.00
2018-09-18T08:34:09.887Z,13340.00
2018-09-18T08:35:09.873Z,7044.00
2018-09-18T08:36:09.853Z,24032.00
2018-09-18T08:37:09.839Z,10760.00
2018-09-18T08:38:09.834Z,31168.00
2018-09-18T08:39:09.839Z,24192.00
2018-09-18T08:40:10.023Z,23200.00
2018-09-18T08:41:09.787Z,42368.00
2018-09-18T08:42:09.771Z,28640.00
2018-09-18T08:43:09.761Z,11052.00
2018-09-18T08:44:09.754Z,6752.00
2018-09-18T08:45:09.734Z,13220.00
2018-09-18T08:46:09.763Z,6608.00
2018-09-18T08:47:09.757Z,18080.00
2018-09-18T08:48:09.701Z,17568.00
2018-09-18T08:49:09.682Z,12564.00
2018-09-18T08:50:09.680Z,42208.00
2018-09-18T08:51:09.677Z,4576.00
2018-09-18T08:52:09.789Z,11428.00
2018-09-18T08:53:09.640Z,15876.00
2018-09-18T08:54:09.626Z,11416.00
2018-09-18T08:55:09.605Z,31680.00
2018-09-18T08:56:09.592Z,56672.00
2018-09-18T08:57:09.597Z,13568.00
2018-09-18T08:58:09.593Z,48224.00
2018-09-18T08:59:09.593Z,60832.00
2018-09-18T09:00:09.551Z,58944.00
2018-09-18T09:01:09.539Z,27808.00
2018-09-18T09:02:09.531Z,37536.00
2018-09-18T09:03:09.591Z,25760.00
2018-09-18T09:04:09.504Z,6808.00
2018-09-18T09:05:09.551Z,34816.00
2018-09-18T09:06:09.543Z,6384.00
2018-09-18T09:07:09.470Z,8424.00
2018-09-18T09:08:09.607Z,8372.00
2018-09-18T09:09:09.526Z,6304.00
2018-09-18T09:10:09.577Z,6504.00
2018-09-18T09:11:09.424Z,6508.00
2018-09-18T09:12:09.413Z,7360.00
2018-09-18T09:13:09.401Z,6376.00
2018-09-18T09:14:09.395Z,6876.00
2018-09-18T09:15:09.469Z,6596.00
2018-09-18T09:16:09.369Z,16352.00
2018-09-18T09:17:09.359Z,6948.00
2018-09-18T09:18:09.434Z,7316.00
2018-09-18T09:19:09.335Z,8720.00
2018-09-18T09:20:09.351Z,7728.00
2018-09-18T09:21:09.487Z,7600.00
2018-09-18T09:22:09.407Z,7776.00
2018-09-18T09:23:09.320Z,18208.00
2018-09-18T09:24:09.284Z,19968.00
2018-09-18T09:25:09.271Z,35008.00
2018-09-18T09:26:09.265Z,24288.00
2018-09-18T09:27:09.282Z,38144.00
2018-09-18T09:28:09.260Z,12728.00
2018-09-18T09:29:09.227Z,42240.00
2018-09-18T09:30:09.335Z,75232.00
2018-09-18T09:31:09.210Z,41184.00
2018-09-18T09:32:09.312Z,61760.00
2018-09-18T09:33:09.184Z,72064.00
2018-09-18T09:34:09.198Z,69888.00
2018-09-18T09:35:09.171Z,70144.00
2018-09-18T09:36:09.158Z,72256.00
2018-09-18T09:37:09.190Z,67968.00
2018-09-18T09:38:11.793Z,67456.00
2018-09-18T09:39:09.137Z,71584.00
2018-09-18T09:40:09.133Z,74336.00
2018-09-18T09:41:09.117Z,71456.00
2018-09-18T09:42:09.115Z,69600.00
2018-09-18T09:43:09.100Z,68896.00
2018-09-18T09:44:09.091Z,66688.00
2018-09-18T09:45:11.817Z,69504.00
2018-09-18T09:46:09.080Z,75872.00
2018-09-18T09:47:09.077Z,77504.00
2018-09-18T09:48:09.073Z,77920.00
2018-09-18T09:49:09.077Z,78560.00
2018-09-18T09:50:09.061Z,76832.00
2018-09-18T09:51:09.159Z,75264.00
2018-09-18T09:52:09.058Z,76000.00
2018-09-18T09:53:10.467Z,76448.00
2018-09-18T09:54:09.043Z,74368.00
2018-09-18T09:55:09.042Z,73696.00
2018-09-18T09:56:09.035Z,73152.00
2018-09-18T09:57:09.035Z,72224.00
2018-09-18T09:58:09.039Z,73760.00
2018-09-18T09:59:09.037Z,77472.00
2018-09-18T10:00:09.046Z,77472.00
2018-09-18T10:01:09.022Z,78112.00
2018-09-18T10:02:09.022Z,79072.00
2018-09-18T10:03:09.022Z,80608.00
2018-09-18T10:04:09.015Z,82432.00
2018-09-18T10:05:09.018Z,80512.00
2018-09-18T10:06:09.010Z,81312.00
2018-09-18T10:07:09.018Z,86208.00
2018-09-18T10:08:09.011Z,84832.00
2018-09-18T10:09:09.007Z,81824.00
2018-09-18T10:10:09.005Z,82560.00
2018-09-18T10:11:09.012Z,84128.00
2018-09-18T10:12:09.001Z,85664.00
2018-09-18T10:13:09.011Z,83936.00
2018-09-18T10:14:09.004Z,81024.00
2018-09-18T10:15:09.025Z,76992.00
2018-09-18T10:16:08.999Z,76096.00
2018-09-18T10:17:08.997Z,77792.00
2018-09-18T10:18:09.097Z,79200.00
2018-09-18T10:19:08.997Z,79456.00
2018-09-18T10:20:08.997Z,80000.00
2018-09-18T10:21:08.994Z,79296.00
2018-09-18T10:22:08.994Z,76992.00
2018-09-18T10:23:09.026Z,76992.00
2018-09-18T10:24:09.011Z,79200.00
2018-09-18T10:25:09.015Z,79904.00
2018-09-18T10:26:09.161Z,80416.00
2018-09-18T10:27:09.143Z,79392.00
2018-09-18T10:28:09.001Z,75808.00
2018-09-18T10:29:08.999Z,72896.00
2018-09-18T10:30:08.993Z,72160.00
2018-09-18T10:31:09.027Z,73376.00
2018-09-18T10:32:09.003Z,74176.00
2018-09-18T10:33:09.007Z,70112.00
2018-09-18T10:34:08.998Z,71328.00
2018-09-18T10:35:09.008Z,75904.00
2018-09-18T10:36:08.989Z,75936.00
2018-09-18T10:37:09.024Z,75488.00
2018-09-18T10:38:08.990Z,72544.00
2018-09-18T10:39:09.026Z,72032.00
2018-09-18T10:40:09.034Z,74976.00
2018-09-18T10:41:09.112Z,71488.00
2018-09-18T10:42:09.041Z,66464.00
2018-09-18T10:43:08.992Z,64768.00
2018-09-18T10:44:08.993Z,71168.00
2018-09-18T10:45:08.996Z,78784.00
2018-09-18T10:46:08.986Z,77248.00
2018-09-18T10:47:08.988Z,74592.00
2018-09-18T10:48:09.007Z,71648.00
2018-09-18T10:49:09.002Z,72192.00
2018-09-18T10:50:09.000Z,72832.00
2018-09-18T10:51:08.986Z,71552.00
2018-09-18T10:52:08.988Z,69632.00
2018-09-18T10:53:08.985Z,69664.00
2018-09-18T10:54:08.994Z,71840.00
2018-09-18T10:55:09.000Z,70784.00
2018-09-18T10:56:08.986Z,67232.00
2018-09-18T10:57:08.993Z,67552.00
2018-09-18T10:58:08.991Z,69664.00
2018-09-18T10:59:08.987Z,68448.00
2018-09-18T11:00:08.984Z,65184.00
2018-09-18T11:01:08.997Z,61600.00
2018-09-18T11:02:09.119Z,58336.00
2018-09-18T11:03:09.016Z,59392.00
2018-09-18T11:04:08.985Z,65600.00
2018-09-18T11:05:09.118Z,68064.00
2018-09-18T11:06:09.008Z,68288.00
2018-09-18T11:07:09.085Z,64000.00
2018-09-18T11:08:09.023Z,57792.00
2018-09-18T11:09:08.993Z,55040.00
2018-09-18T11:10:09.069Z,50720.00
2018-09-18T11:11:09.004Z,49792.00
2018-09-18T11:12:08.987Z,50528.00
2018-09-18T11:13:09.035Z,50432.00
2018-09-18T11:14:09.009Z,47712.00
2018-09-18T11:15:08.984Z,47104.00
2018-09-18T11:16:09.198Z,51136.00
2018-09-18T11:17:09.003Z,57248.00
2018-09-18T11:18:09.125Z,64128.00
2018-09-18T11:19:08.981Z,65024.00
2018-09-18T11:20:08.979Z,62784.00
2018-09-18T11:21:08.984Z,60832.00
2018-09-18T11:22:09.011Z,61088.00
2018-09-18T11:23:08.987Z,62560.00
2018-09-18T11:24:09.070Z,63264.00
2018-09-18T11:25:09.027Z,63136.00
2018-09-18T11:26:08.997Z,63968.00
2018-09-18T11:27:08.984Z,64480.00
2018-09-18T11:28:08.996Z,68352.00
2018-09-18T11:29:08.978Z,69664.00
2018-09-18T11:30:08.983Z,69248.00
2018-09-18T11:31:08.997Z,67008.00
2018-09-18T11:32:08.981Z,62496.00
2018-09-18T11:33:08.969Z,58144.00
2018-09-18T11:34:08.970Z,54464.00
2018-09-18T11:35:08.964Z,53504.00
2018-09-18T11:36:08.963Z,58208.00
2018-09-18T11:37:08.961Z,60640.00
2018-09-18T11:38:08.973Z,59328.00
2018-09-18T11:39:08.964Z,59296.00
2018-09-18T11:40:08.958Z,61664.00
2018-09-18T11:41:08.999Z,68224.00
2018-09-18T11:42:08.950Z,67040.00
2018-09-18T11:43:11.571Z,65280.00
2018-09-18T11:44:09.064Z,68032.00
2018-09-18T11:45:08.941Z,67360.00
2018-09-18T11:46:08.940Z,64768.00
2018-09-18T11:47:08.941Z,66976.00
2018-09-18T11:48:08.946Z,65024.00
2018-09-18T11:49:08.938Z,61984.00
2018-09-18T11:50:08.942Z,64256.00
2018-09-18T11:51:08.942Z,63392.00
2018-09-18T11:52:08.927Z,48992.00
2018-09-18T11:53:08.920Z,19776.00
2018-09-18T11:54:08.920Z,9876.00
2018-09-18T11:55:08.917Z,8872.00
2018-09-18T11:56:08.907Z,8244.00
2018-09-18T11:57:08.992Z,7716.00
2018-09-18T11:58:08.900Z,7304.00
2018-09-18T11:59:08.899Z,7036.00
2018-09-18T12:00:08.925Z,6628.00
2018-09-18T12:01:08.900Z,6444.00
2018-09-18T12:02:08.885Z,6236.00
2018-09-18T12:03:08.942Z,6076.00
2018-09-18T12:04:08.874Z,5920.00
2018-09-18T12:05:08.950Z,5756.00
2018-09-18T12:06:08.866Z,5664.00
2018-09-18T12:07:08.859Z,5532.00
2018-09-18T12:08:08.864Z,5192.00
2018-09-18T12:09:08.909Z,4980.00
2018-09-18T12:10:08.855Z,4896.00
2018-09-18T12:11:08.840Z,4876.00
2018-09-18T12:12:08.835Z,4764.00
2018-09-18T12:13:08.839Z,4740.00
2018-09-18T12:14:08.826Z,4784.00
2018-09-18T12:15:08.826Z,4864.00
2018-09-18T12:16:08.811Z,4956.00
2018-09-18T12:17:08.835Z,4912.00
2018-09-18T12:18:08.797Z,4800.00
2018-09-18T12:19:08.792Z,4884.00
2018-09-18T12:20:08.805Z,5004.00
2018-09-18T12:21:08.788Z,4944.00
2018-09-18T12:22:08.777Z,4944.00
2018-09-18T12:23:08.764Z,4908.00
2018-09-18T12:24:08.766Z,4836.00
2018-09-18T12:25:08.747Z,4828.00
2018-09-18T12:26:08.769Z,4772.00
2018-09-18T12:27:08.744Z,4648.00
2018-09-18T12:28:08.739Z,4604.00